Time;durP1;ratioP1;P1;durP2;ratioP2;P2;SDS_P1;SDS_P2;PMS_P1;PMS_P2;Temp;Humidity;BMP_temperature;BMP_pressure;BME280_temperature;BME280_humidity;BME280_pressure;Samples;Min_cycle;Max_cycle;Signal;HPM_P1;HPM_P2
2024/03/20 00:01:35;;;;;;;7.07;3.50;;;10.10;99.90;;;;;;5152697;27;20494;-65
2024/03/20 00:04:04;;;;;;;6.80;3.55;;;10.40;99.90;;;;;;5122082;27;20039;-65
2024/03/20 00:06:32;;;;;;;8.52;4.05;;;10.10;99.90;;;;;;5123655;27;20058;-65
2024/03/20 00:08:58;;;;;;;7.03;4.45;;;10.10;99.90;;;;;;5124829;27;20082;-65
2024/03/20 00:11:24;;;;;;;9.85;4.15;;;10.10;99.90;;;;;;5125726;27;20059;-65
2024/03/20 00:13:50;;;;;;;7.93;4.72;;;10.10;99.90;;;;;;5112401;27;20397;-65
2024/03/20 00:16:15;;;;;;;9.98;4.45;;;10.10;99.90;;;;;;5123121;27;20031;-65
2024/03/20 00:18:41;;;;;;;7.28;4.07;;;10.10;99.90;;;;;;5121900;27;20040;-65
2024/03/20 00:21:07;;;;;;;9.32;4.90;;;10.10;99.90;;;;;;5122541;27;20046;-66
2024/03/20 00:23:33;;;;;;;8.65;5.18;;;10.20;99.90;;;;;;5127401;27;20408;-65
2024/03/20 00:26:00;;;;;;;10.60;4.70;;;10.10;99.90;;;;;;5122927;27;20067;-65
2024/03/20 00:28:26;;;;;;;8.38;3.97;;;10.10;99.90;;;;;;5155471;27;20039;-66
2024/03/20 00:30:51;;;;;;;6.20;4.30;;;10.10;99.90;;;;;;5120041;27;20431;-65
2024/03/20 00:33:17;;;;;;;8.65;4.43;;;10.10;99.90;;;;;;5124804;27;20035;-65
2024/03/20 00:35:43;;;;;;;9.65;4.45;;;10.10;99.90;;;;;;5125669;27;20209;-65
2024/03/20 00:38:08;;;;;;;9.73;4.45;;;10.10;99.90;;;;;;5156034;27;20039;-65
2024/03/20 00:40:34;;;;;;;8.35;4.15;;;10.10;99.90;;;;;;5124742;27;20043;-65
2024/03/20 00:43:00;;;;;;;5.82;4.10;;;10.10;99.90;;;;;;5125657;27;20126;-65
2024/03/20 00:45:28;;;;;;;9.52;4.35;;;10.20;99.90;;;;;;5154207;27;20043;-65
2024/03/20 00:47:54;;;;;;;9.77;4.70;;;10.10;99.90;;;;;;5129559;27;20043;-65
2024/03/20 00:50:20;;;;;;;11.05;5.53;;;10.20;99.90;;;;;;5126270;27;20478;-65
2024/03/20 00:52:46;;;;;;;9.07;5.53;;;10.20;99.90;;;;;;5129086;27;20055;-65
2024/03/20 00:55:11;;;;;;;7.40;3.90;;;10.20;99.90;;;;;;5120728;27;20217;-65
2024/03/20 00:57:37;;;;;;;5.80;4.22;;;10.10;99.90;;;;;;5154835;27;20049;-65
2024/03/20 01:00:04;;;;;;;7.93;4.60;;;10.20;99.90;;;;;;5127982;27;20505;-65
2024/03/20 01:02:31;;;;;;;7.43;4.32;;;10.20;99.90;;;;;;5123215;27;20043;-65
2024/03/20 01:04:58;;;;;;;6.63;4.43;;;10.10;99.90;;;;;;5122765;27;20038;-65
2024/03/20 01:07:23;;;;;;;6.05;4.18;;;10.20;99.90;;;;;;5123270;27;20047;-65
2024/03/20 01:09:49;;;;;;;8.30;3.72;;;10.20;99.90;;;;;;5125070;27;20354;-65
2024/03/20 01:12:14;;;;;;;7.18;3.95;;;10.10;99.90;;;;;;5126227;27;20027;-65
2024/03/20 01:14:40;;;;;;;7.97;3.72;;;10.10;99.90;;;;;;5120204;27;20040;-65
2024/03/20 01:17:05;;;;;;;5.63;4.03;;;10.00;99.90;;;;;;5122207;27;20130;-65
2024/03/20 01:19:31;;;;;;;5.07;3.22;;;10.00;99.90;;;;;;5123912;27;20478;-65
2024/03/20 01:21:57;;;;;;;5.93;3.55;;;10.00;99.90;;;;;;5124745;27;20130;-65
2024/03/20 01:24:22;;;;;;;12.07;5.65;;;10.00;99.90;;;;;;5124421;27;20145;-65
2024/03/20 01:26:48;;;;;;;6.95;4.60;;;10.00;99.90;;;;;;5125683;27;20031;-65
2024/03/20 01:29:13;;;;;;;8.25;4.68;;;10.00;99.90;;;;;;5123367;27;20100;-65
2024/03/20 01:31:39;;;;;;;10.73;4.82;;;10.00;99.90;;;;;;5123536;27;20698;-65
2024/03/20 01:34:05;;;;;;;4.30;3.58;;;10.00;99.90;;;;;;5120415;27;20050;-65
2024/03/20 01:36:30;;;;;;;5.22;3.83;;;10.00;99.90;;;;;;5121346;27;20067;-65
2024/03/20 01:38:56;;;;;;;6.55;4.25;;;10.00;99.90;;;;;;5123532;27;20043;-65
2024/03/20 01:41:22;;;;;;;8.13;4.97;;;10.00;99.90;;;;;;5125431;27;20041;-65
2024/03/20 01:43:54;;;;;;;7.47;4.15;;;10.00;99.90;;;;;;5125977;27;20031;-65
2024/03/20 01:46:33;;;;;;;6.72;4.22;;;10.00;99.90;;;;;;5125559;27;20051;-65
2024/03/20 01:49:04;;;;;;;8.10;4.28;;;9.90;99.90;;;;;;5123866;27;20446;-65
2024/03/20 01:51:31;;;;;;;4.80;3.35;;;10.10;99.90;;;;;;5123402;27;20040;-65
2024/03/20 01:54:01;;;;;;;5.28;4.30;;;9.90;99.90;;;;;;5122218;27;20032;-65
2024/03/20 01:56:27;;;;;;;10.50;5.47;;;9.90;99.90;;;;;;5118464;27;20044;-65
2024/03/20 01:58:54;;;;;;;8.52;5.43;;;10.00;99.90;;;;;;5123568;27;20042;-65
2024/03/20 02:01:20;;;;;;;9.25;5.82;;;9.90;99.90;;;;;;5120121;27;20040;-65
2024/03/20 02:03:46;;;;;;;7.25;5.38;;;9.90;99.90;;;;;;5124755;27;20485;-65
2024/03/20 02:06:24;;;;;;;8.70;5.80;;;9.90;99.90;;;;;;5105564;27;20042;-65
2024/03/20 02:08:50;;;;;;;10.43;5.05;;;10.00;99.90;;;;;;5124917;27;20542;-65
2024/03/20 02:11:16;;;;;;;9.50;5.18;;;10.00;99.90;;;;;;5121022;27;20031;-65
2024/03/20 02:13:49;;;;;;;7.05;4.78;;;9.90;99.90;;;;;;5121899;27;20326;-65
2024/03/20 02:16:16;;;;;;;13.50;4.90;;;10.00;99.90;;;;;;5117264;27;20053;-65
2024/03/20 02:18:43;;;;;;;9.52;5.60;;;10.00;99.90;;;;;;5122080;27;20042;-65
2024/03/20 02:21:10;;;;;;;9.57;6.13;;;9.90;99.90;;;;;;5121849;27;20031;-65
2024/03/20 02:23:36;;;;;;;11.13;5.75;;;9.90;99.90;;;;;;5103652;27;20070;-65
2024/03/20 02:26:02;;;;;;;10.70;5.75;;;9.80;99.90;;;;;;5118720;27;20043;-65
2024/03/20 02:28:27;;;;;;;6.85;5.07;;;9.90;99.90;;;;;;5122400;27;20126;-65
2024/03/20 02:30:53;;;;;;;11.07;5.55;;;9.80;99.90;;;;;;5123188;27;20043;-65
2024/03/20 02:33:18;;;;;;;10.77;5.18;;;9.80;99.90;;;;;;5119295;27;21076;-65
2024/03/20 02:35:44;;;;;;;9.60;5.40;;;9.80;99.90;;;;;;5118733;27;20058;-65
2024/03/20 02:38:10;;;;;;;9.75;6.07;;;9.80;99.90;;;;;;5121360;27;20043;-65
2024/03/20 02:40:35;;;;;;;8.48;5.10;;;9.70;99.90;;;;;;5118636;27;20047;-65
2024/03/20 02:43:01;;;;;;;14.07;6.53;;;9.70;99.90;;;;;;5125761;27;20130;-65
2024/03/20 02:45:26;;;;;;;8.70;5.00;;;9.60;99.90;;;;;;5119413;27;20042;-65
2024/03/20 02:47:52;;;;;;;8.00;4.68;;;9.60;99.90;;;;;;5123356;27;20046;-65
2024/03/20 02:50:18;;;;;;;8.10;4.97;;;9.60;99.90;;;;;;5120759;27;20031;-65
2024/03/20 02:52:43;;;;;;;9.07;5.22;;;9.60;99.90;;;;;;5122987;27;20046;-65
2024/03/20 02:55:09;;;;;;;6.43;4.95;;;9.60;99.90;;;;;;5120234;27;20043;-65
2024/03/20 02:57:34;;;;;;;9.75;5.15;;;9.60;99.90;;;;;;5122340;27;20051;-65
2024/03/20 03:00:00;;;;;;;7.38;4.38;;;9.60;99.90;;;;;;5121785;27;20039;-65
2024/03/20 03:02:26;;;;;;;8.15;5.40;;;9.60;99.90;;;;;;5121766;27;20043;-65
2024/03/20 03:04:51;;;;;;;9.77;5.35;;;9.60;99.90;;;;;;5150984;27;20047;-65
2024/03/20 03:07:18;;;;;;;7.68;5.10;;;9.50;99.90;;;;;;5123024;27;20039;-65
2024/03/20 03:09:43;;;;;;;10.00;4.95;;;9.50;99.90;;;;;;5120712;27;20046;-65
2024/03/20 03:12:09;;;;;;;10.45;5.90;;;9.50;99.90;;;;;;5122723;28;20420;-65
2024/03/20 03:14:34;;;;;;;8.27;5.75;;;9.50;99.90;;;;;;5154530;27;20032;-65
2024/03/20 03:17:00;;;;;;;11.15;5.90;;;9.50;99.90;;;;;;5124763;28;20035;-65
2024/03/20 03:19:26;;;;;;;7.32;5.05;;;9.40;99.90;;;;;;5123235;27;20039;-65
2024/03/20 03:21:51;;;;;;;7.32;4.30;;;9.40;99.90;;;;;;5122700;28;20469;-65
2024/03/20 03:24:17;;;;;;;6.72;5.15;;;9.40;99.90;;;;;;5123583;28;20034;-65
2024/03/20 03:26:42;;;;;;;7.85;5.28;;;9.30;99.90;;;;;;5120175;27;20382;-65
2024/03/20 03:29:08;;;;;;;6.57;5.07;;;9.30;99.90;;;;;;5123623;28;20038;-65
2024/03/20 03:31:36;;;;;;;7.88;5.32;;;9.30;99.90;;;;;;5116751;28;20481;-65
2024/03/20 03:34:02;;;;;;;10.48;5.68;;;9.30;99.90;;;;;;5121097;27;20039;-65
2024/03/20 03:36:27;;;;;;;9.10;5.40;;;9.30;99.90;;;;;;5123569;27;20039;-65
2024/03/20 03:38:53;;;;;;;8.73;4.43;;;9.20;99.90;;;;;;5155879;27;20124;-65
2024/03/20 03:41:19;;;;;;;6.22;4.70;;;9.30;99.90;;;;;;5126590;27;20066;-65
2024/03/20 03:43:46;;;;;;;8.38;4.65;;;9.20;99.90;;;;;;5129994;27;20063;-65
2024/03/20 03:46:12;;;;;;;7.45;5.22;;;9.30;99.90;;;;;;5125044;27;20481;-65
2024/03/20 03:48:37;;;;;;;9.70;5.78;;;9.20;99.90;;;;;;5159664;27;20043;-65
2024/03/20 03:51:03;;;;;;;11.85;6.55;;;9.20;99.90;;;;;;5126047;27;20453;-65
2024/03/20 03:53:29;;;;;;;10.40;6.85;;;9.30;99.90;;;;;;5123804;27;20031;-65
2024/03/20 03:55:55;;;;;;;10.85;6.68;;;9.20;99.90;;;;;;5123019;27;20035;-65
2024/03/20 03:58:21;;;;;;;9.07;6.85;;;9.30;99.90;;;;;;5125940;27;20087;-65
2024/03/20 04:00:46;;;;;;;9.65;5.50;;;9.30;99.90;;;;;;5127030;27;20043;-65
2024/03/20 04:03:12;;;;;;;8.02;5.78;;;9.30;99.90;;;;;;5127082;27;20039;-65
2024/03/20 04:05:38;;;;;;;10.57;6.05;;;9.30;99.90;;;;;;5129814;27;20477;-65
2024/03/20 04:08:03;;;;;;;9.02;6.28;;;9.30;99.90;;;;;;5125922;27;20108;-65
2024/03/20 04:10:29;;;;;;;7.78;6.15;;;9.30;99.90;;;;;;5125149;27;20209;-65
2024/03/20 04:12:55;;;;;;;10.73;6.32;;;9.20;99.90;;;;;;5123642;27;20027;-65
2024/03/20 04:15:20;;;;;;;10.05;6.35;;;9.30;99.90;;;;;;5123777;27;20031;-65
2024/03/20 04:17:46;;;;;;;8.40;6.15;;;9.30;99.90;;;;;;5124202;27;20440;-65
2024/03/20 04:20:12;;;;;;;10.60;6.55;;;9.30;99.90;;;;;;5126543;27;20035;-65
2024/03/20 04:22:38;;;;;;;12.95;7.05;;;9.40;99.90;;;;;;5128559;27;20389;-65
2024/03/20 04:25:05;;;;;;;8.88;6.63;;;9.20;99.90;;;;;;5127465;27;20085;-65
2024/03/20 04:27:31;;;;;;;11.55;6.95;;;9.20;99.90;;;;;;5123470;27;20044;-65
2024/03/20 04:29:56;;;;;;;10.43;6.72;;;9.20;99.90;;;;;;5129906;27;20507;-65
2024/03/20 04:32:22;;;;;;;9.30;6.28;;;9.20;99.90;;;;;;5122984;27;20051;-65
2024/03/20 04:34:48;;;;;;;10.13;7.07;;;9.30;99.90;;;;;;5127173;27;20039;-65
2024/03/20 04:37:13;;;;;;;9.23;6.90;;;9.20;99.90;;;;;;5128301;27;20122;-65
2024/03/20 04:39:39;;;;;;;13.15;7.32;;;9.20;99.90;;;;;;5124392;27;20509;-65
2024/03/20 04:42:05;;;;;;;8.77;6.68;;;9.30;99.90;;;;;;5123545;27;21309;-65
2024/03/20 04:44:30;;;;;;;11.07;7.25;;;9.30;99.90;;;;;;5155447;27;20050;-65
2024/03/20 04:46:56;;;;;;;15.75;7.50;;;9.30;99.90;;;;;;5122524;27;20046;-65
2024/03/20 04:49:22;;;;;;;11.38;6.70;;;9.30;99.90;;;;;;5121187;27;20118;-65
2024/03/20 04:51:47;;;;;;;9.45;6.95;;;9.30;99.90;;;;;;5125356;27;20076;-65
2024/03/20 04:54:16;;;;;;;15.30;6.90;;;9.30;99.90;;;;;;5121731;27;20055;-65
2024/03/20 04:56:42;;;;;;;10.30;7.72;;;9.30;99.90;;;;;;5116219;27;20039;-65
2024/03/20 04:59:07;;;;;;;15.82;7.97;;;9.40;99.90;;;;;;5145986;27;20451;-65
2024/03/20 05:01:33;;;;;;;13.57;7.00;;;9.40;99.90;;;;;;5117114;27;20074;-65
2024/03/20 05:04:02;;;;;;;12.63;7.82;;;9.40;99.90;;;;;;5115504;27;20095;-65
2024/03/20 05:06:28;;;;;;;11.77;7.55;;;9.40;99.90;;;;;;5116057;27;20586;-65
2024/03/20 05:08:53;;;;;;;8.27;6.18;;;9.40;99.90;;;;;;5118136;27;20031;-65
2024/03/20 05:11:19;;;;;;;11.38;7.10;;;9.40;99.90;;;;;;5118663;27;20183;-65
2024/03/20 05:13:45;;;;;;;10.38;7.70;;;9.40;99.90;;;;;;5118825;27;20043;-65
2024/03/20 05:16:10;;;;;;;13.27;7.55;;;9.40;99.90;;;;;;5119419;27;20041;-65
2024/03/20 05:18:36;;;;;;;8.75;6.22;;;9.40;99.90;;;;;;5117807;27;20374;-65
2024/03/20 05:21:02;;;;;;;13.23;7.22;;;9.40;99.90;;;;;;5115156;27;20134;-65
2024/03/20 05:23:28;;;;;;;10.52;7.45;;;9.40;99.90;;;;;;5117528;27;20508;-65
2024/03/20 05:25:55;;;;;;;8.52;6.75;;;9.40;99.90;;;;;;5114299;27;20400;-65
2024/03/20 05:28:20;;;;;;;12.35;7.38;;;9.40;99.90;;;;;;5147261;27;20050;-65
2024/03/20 05:30:46;;;;;;;12.18;7.82;;;9.40;99.90;;;;;;5120160;27;20482;-65
2024/03/20 05:33:12;;;;;;;11.07;8.27;;;9.40;99.90;;;;;;5120230;27;20117;-65
2024/03/20 05:35:37;;;;;;;12.38;7.65;;;9.40;99.90;;;;;;5121985;27;20031;-65
2024/03/20 05:38:03;;;;;;;11.38;7.40;;;9.40;99.90;;;;;;5122926;27;20511;-65
2024/03/20 05:40:29;;;;;;;15.25;8.90;;;9.30;99.90;;;;;;5105418;27;20050;-65
2024/03/20 05:42:54;;;;;;;10.60;7.15;;;9.30;99.90;;;;;;5117991;27;20462;-65
2024/03/20 05:45:20;;;;;;;14.05;7.07;;;9.30;99.90;;;;;;5122137;27;20038;-65
2024/03/20 05:47:46;;;;;;;14.50;7.20;;;9.20;99.90;;;;;;5117799;27;20047;-65
2024/03/20 05:50:11;;;;;;;11.10;6.80;;;9.30;99.90;;;;;;5120677;27;20118;-65
2024/03/20 05:52:37;;;;;;;12.15;7.25;;;9.20;99.90;;;;;;5119968;27;20031;-65
2024/03/20 05:55:03;;;;;;;12.45;6.97;;;9.20;99.90;;;;;;5124996;27;20040;-65
2024/03/20 05:57:28;;;;;;;13.57;7.82;;;9.20;99.90;;;;;;5119580;27;20070;-65
2024/03/20 05:59:54;;;;;;;12.75;7.45;;;9.30;99.90;;;;;;5125065;27;20039;-65
2024/03/20 06:02:19;;;;;;;16.90;8.15;;;9.30;99.90;;;;;;5118990;27;20125;-65
2024/03/20 06:04:45;;;;;;;11.32;7.80;;;9.30;99.90;;;;;;5119372;27;20035;-65
2024/03/20 06:07:11;;;;;;;14.63;8.13;;;9.30;99.90;;;;;;5118963;27;20067;-65
2024/03/20 06:09:36;;;;;;;15.10;8.20;;;9.40;99.90;;;;;;5118144;27;20043;-65
2024/03/20 06:12:04;;;;;;;10.77;7.35;;;9.30;99.90;;;;;;5154094;27;20408;-65
2024/03/20 06:14:30;;;;;;;11.05;7.38;;;9.50;99.90;;;;;;5124887;27;20042;-65
2024/03/20 06:16:57;;;;;;;10.40;6.97;;;9.50;99.90;;;;;;5119634;27;20546;-65
2024/03/20 06:19:23;;;;;;;14.20;7.47;;;9.60;99.90;;;;;;5117986;27;20035;-65
2024/03/20 06:21:49;;;;;;;12.43;8.02;;;9.60;99.90;;;;;;5120627;27;20052;-65
2024/03/20 06:24:14;;;;;;;14.60;7.20;;;9.70;99.90;;;;;;5123610;27;20038;-65
2024/03/20 06:26:40;;;;;;;12.98;7.07;;;9.70;99.90;;;;;;5122539;27;20126;-65
2024/03/20 06:29:06;;;;;;;9.68;6.97;;;9.70;99.90;;;;;;5118777;27;20614;-65
2024/03/20 06:31:31;;;;;;;11.60;7.03;;;9.70;99.90;;;;;;5155952;27;20080;-65
2024/03/20 06:33:57;;;;;;;11.85;7.20;;;9.90;99.90;;;;;;5121368;27;20034;-65
2024/03/20 06:36:23;;;;;;;10.02;7.30;;;9.80;99.90;;;;;;5119787;27;20034;-65
2024/03/20 06:38:48;;;;;;;9.63;7.18;;;9.80;99.90;;;;;;5154920;27;20595;-65
2024/03/20 06:41:15;;;;;;;9.75;7.05;;;9.80;99.90;;;;;;5153864;27;20560;-65
2024/03/20 06:43:41;;;;;;;11.52;7.50;;;9.90;99.90;;;;;;5119256;27;20071;-65
2024/03/20 06:46:06;;;;;;;11.88;7.20;;;9.90;99.90;;;;;;5122129;27;20082;-65
2024/03/20 06:48:32;;;;;;;10.18;7.35;;;9.80;99.90;;;;;;5120803;27;20485;-65
2024/03/20 06:50:58;;;;;;;12.00;6.80;;;9.90;99.90;;;;;;5152877;27;20066;-65
2024/03/20 06:53:26;;;;;;;11.30;7.32;;;9.90;99.90;;;;;;5120022;27;20085;-65
2024/03/20 06:55:59;;;;;;;11.55;6.38;;;10.00;99.90;;;;;;5153741;27;20042;-65
2024/03/20 06:58:24;;;;;;;9.75;6.90;;;10.00;99.90;;;;;;5123337;27;20577;-65
2024/03/20 07:00:50;;;;;;;12.15;6.88;;;10.00;99.90;;;;;;5115518;27;20039;-65
2024/03/20 07:03:18;;;;;;;10.55;6.50;;;10.10;99.90;;;;;;5120951;27;20092;-65
2024/03/20 07:05:44;;;;;;;11.35;6.32;;;10.10;99.90;;;;;;5151951;27;20051;-65
2024/03/20 07:08:09;;;;;;;15.93;8.02;;;10.30;99.90;;;;;;5120517;27;20058;-65
2024/03/20 07:10:39;;;;;;;12.02;6.40;;;10.30;99.90;;;;;;5148839;27;20063;-65
2024/03/20 07:13:05;;;;;;;14.20;7.07;;;10.40;99.90;;;;;;5108224;28;20434;-65
2024/03/20 07:15:36;;;;;;;13.38;7.03;;;10.60;99.90;;;;;;5120216;27;20035;-65
2024/03/20 07:18:04;;;;;;;11.50;6.78;;;10.50;99.90;;;;;;5120228;27;20047;-65
2024/03/20 07:20:30;;;;;;;11.18;6.53;;;10.60;99.90;;;;;;5122317;28;20074;-64
2024/03/20 07:22:57;;;;;;;8.65;5.53;;;10.70;99.90;;;;;;5122338;28;20051;-65
2024/03/20 07:25:26;;;;;;;7.50;5.97;;;10.60;99.90;;;;;;5153736;27;20103;-65
2024/03/20 07:27:55;;;;;;;12.73;5.90;;;10.70;99.90;;;;;;5119368;28;20051;-65
2024/03/20 07:30:21;;;;;;;11.13;6.10;;;10.80;99.90;;;;;;5123419;27;20039;-65
2024/03/20 07:32:47;;;;;;;10.40;5.53;;;10.80;99.90;;;;;;5100585;28;20524;-65
2024/03/20 07:35:12;;;;;;;9.90;6.70;;;10.80;99.90;;;;;;5117688;28;20047;-65
2024/03/20 07:37:39;;;;;;;11.40;6.57;;;10.90;99.90;;;;;;5118170;28;20044;-65
2024/03/20 07:40:07;;;;;;;10.07;5.55;;;10.90;99.90;;;;;;5118122;28;20040;-65
2024/03/20 07:42:34;;;;;;;9.45;6.32;;;10.90;99.90;;;;;;5119683;28;20058;-65
2024/03/20 07:45:00;;;;;;;9.88;5.53;;;11.00;99.90;;;;;;5150102;27;20039;-65
2024/03/20 07:47:25;;;;;;;17.10;6.75;;;11.00;99.90;;;;;;5120808;28;20039;-65
2024/03/20 07:49:52;;;;;;;9.32;4.80;;;11.10;99.90;;;;;;5117668;28;20762;-65
2024/03/20 07:52:18;;;;;;;8.35;4.43;;;11.20;99.90;;;;;;5116466;28;20541;-65
2024/03/20 07:54:44;;;;;;;9.35;5.60;;;11.30;99.90;;;;;;5120100;28;20040;-65
2024/03/20 07:57:09;;;;;;;10.90;5.03;;;11.30;99.90;;;;;;5119213;28;20039;-65
2024/03/20 07:59:35;;;;;;;13.07;5.40;;;11.40;99.90;;;;;;5120552;28;20039;-65
2024/03/20 08:02:01;;;;;;;10.25;4.07;;;11.50;99.90;;;;;;5118789;28;20039;-65
2024/03/20 08:04:27;;;;;;;8.48;4.07;;;11.50;99.90;;;;;;5114995;28;20051;-65
2024/03/20 08:06:53;;;;;;;10.95;4.32;;;11.70;99.90;;;;;;5118009;28;20513;-65
2024/03/20 08:09:19;;;;;;;9.63;4.35;;;11.80;99.90;;;;;;5117635;28;20047;-65
2024/03/20 08:11:44;;;;;;;8.77;4.82;;;11.90;99.90;;;;;;5118553;28;20042;-65
2024/03/20 08:14:22;;;;;;;13.52;5.05;;;12.10;99.90;;;;;;5121358;27;20038;-65
2024/03/20 08:16:48;;;;;;;11.07;4.55;;;12.10;99.90;;;;;;5121166;27;20079;-65
2024/03/20 08:19:13;;;;;;;8.98;4.75;;;12.30;99.90;;;;;;5116649;28;20050;-65
2024/03/20 08:21:39;;;;;;;8.50;4.45;;;12.30;99.90;;;;;;5117990;27;20047;-65
2024/03/20 08:24:05;;;;;;;6.45;4.15;;;12.50;99.90;;;;;;5128008;27;20039;-65
2024/03/20 08:26:31;;;;;;;13.18;4.18;;;12.50;99.90;;;;;;5120410;27;20655;-65
2024/03/20 08:28:57;;;;;;;12.05;4.55;;;12.60;99.90;;;;;;5121724;27;20137;-65
2024/03/20 08:31:23;;;;;;;12.20;3.78;;;12.70;99.90;;;;;;5121772;27;20089;-65
2024/03/20 08:33:49;;;;;;;7.85;3.58;;;12.80;99.90;;;;;;5120483;27;20085;-65
2024/03/20 08:36:15;;;;;;;11.77;4.30;;;12.90;99.90;;;;;;5123229;27;20533;-65
2024/03/20 08:38:42;;;;;;;8.40;4.43;;;13.00;99.90;;;;;;5120751;27;20051;-65
2024/03/20 08:41:07;;;;;;;12.32;4.50;;;13.10;99.90;;;;;;5118322;27;20046;-65
2024/03/20 08:43:33;;;;;;;5.90;3.63;;;13.20;99.90;;;;;;5119309;27;20445;-65
2024/03/20 08:46:00;;;;;;;10.88;4.90;;;13.30;99.90;;;;;;5119755;27;20050;-65
2024/03/20 08:48:30;;;;;;;12.18;4.65;;;13.50;99.90;;;;;;5121732;27;20075;-65
2024/03/20 08:50:56;;;;;;;8.55;4.03;;;13.40;99.90;;;;;;5153413;27;20146;-65
2024/03/20 08:53:22;;;;;;;13.25;5.35;;;13.40;99.90;;;;;;5111456;27;20039;-65
2024/03/20 08:55:48;;;;;;;9.93;4.97;;;13.50;99.90;;;;;;5120927;27;20046;-65
2024/03/20 08:58:14;;;;;;;14.40;5.45;;;13.50;99.90;;;;;;5122192;27;20034;-65
2024/03/20 09:00:39;;;;;;;13.55;6.03;;;13.60;99.90;;;;;;5123356;27;20234;-65
2024/03/20 09:03:05;;;;;;;13.63;5.22;;;13.70;99.90;;;;;;5114897;27;20039;-65
2024/03/20 09:05:31;;;;;;;10.65;5.90;;;13.60;99.90;;;;;;5148386;27;20174;-65
2024/03/20 09:07:57;;;;;;;9.57;4.53;;;13.80;99.90;;;;;;5121856;27;20098;-65
2024/03/20 09:10:23;;;;;;;12.55;6.22;;;14.00;99.90;;;;;;5120210;27;20047;-65
2024/03/20 09:12:48;;;;;;;12.32;5.50;;;14.00;99.90;;;;;;5119413;27;20393;-65
2024/03/20 09:15:14;;;;;;;8.55;5.45;;;14.10;99.90;;;;;;5121197;27;20031;-65
2024/03/20 09:17:40;;;;;;;10.60;5.85;;;14.40;99.90;;;;;;5122145;27;20038;-65
2024/03/20 09:20:15;;;;;;;11.52;5.60;;;14.30;99.90;;;;;;5118877;27;21503;-65
2024/03/20 09:22:43;;;;;;;10.73;6.75;;;14.40;99.90;;;;;;5120231;27;20039;-65
2024/03/20 09:25:09;;;;;;;10.95;5.93;;;14.50;99.90;;;;;;5118328;27;20039;-65
2024/03/20 09:27:35;;;;;;;12.13;5.68;;;14.60;99.90;;;;;;5122836;27;20095;-65
2024/03/20 09:30:02;;;;;;;11.00;5.68;;;14.60;99.90;;;;;;5131302;27;20051;-65
2024/03/20 09:32:29;;;;;;;10.05;6.03;;;14.60;99.90;;;;;;5119408;27;20039;-65
2024/03/20 09:34:58;;;;;;;16.27;7.00;;;14.60;99.90;;;;;;5119797;27;20396;-65
2024/03/20 09:37:29;;;;;;;9.02;5.65;;;14.80;99.90;;;;;;5122509;27;20040;-65
2024/03/20 09:39:55;;;;;;;13.02;6.18;;;14.90;99.90;;;;;;5120383;27;20051;-65
2024/03/20 09:42:22;;;;;;;12.07;5.30;;;14.90;99.90;;;;;;5118160;27;20039;-65
2024/03/20 09:44:49;;;;;;;11.50;5.70;;;14.90;99.90;;;;;;5121049;27;20077;-65
2024/03/20 09:47:16;;;;;;;14.30;5.57;;;15.00;99.90;;;;;;5119428;27;20031;-65
2024/03/20 09:49:43;;;;;;;8.23;4.65;;;15.10;99.90;;;;;;5152160;27;20552;-65
2024/03/20 09:52:09;;;;;;;10.38;5.13;;;15.20;99.90;;;;;;5150761;27;20066;-65
2024/03/20 09:54:35;;;;;;;12.48;6.10;;;15.30;99.90;;;;;;5120183;27;20037;-65
2024/03/20 09:57:01;;;;;;;10.25;4.60;;;15.30;99.90;;;;;;5118613;27;20023;-65
2024/03/20 09:59:29;;;;;;;10.93;4.85;;;15.40;99.90;;;;;;5116806;27;20039;-65
2024/03/20 10:01:55;;;;;;;7.90;4.50;;;15.40;99.90;;;;;;5114697;27;20627;-65
2024/03/20 10:04:27;;;;;;;15.63;5.38;;;15.20;99.90;;;;;;5118715;27;20434;-65
2024/03/20 10:06:52;;;;;;;9.65;4.72;;;15.10;99.90;;;;;;5120871;27;20100;-65
2024/03/20 10:09:18;;;;;;;8.30;4.03;;;15.20;99.90;;;;;;5150238;27;20067;-65
2024/03/20 10:11:44;;;;;;;10.18;4.82;;;15.20;99.90;;;;;;5124045;27;20364;-65
2024/03/20 10:14:11;;;;;;;9.88;5.93;;;15.20;99.90;;;;;;5123655;27;20039;-65
2024/03/20 10:16:38;;;;;;;11.43;5.47;;;15.20;99.90;;;;;;5151145;27;20084;-65
2024/03/20 10:19:04;;;;;;;15.48;5.45;;;15.20;99.90;;;;;;5119855;27;20050;-65
2024/03/20 10:21:32;;;;;;;9.13;5.18;;;15.10;99.90;;;;;;5119271;27;20147;-65
2024/03/20 10:23:58;;;;;;;12.02;6.20;;;15.10;99.90;;;;;;5121987;27;20038;-65
2024/03/20 10:26:24;;;;;;;9.98;5.03;;;15.10;99.90;;;;;;5108631;27;20039;-65
2024/03/20 10:28:51;;;;;;;10.05;5.20;;;15.00;99.90;;;;;;5125581;27;20043;-65
2024/03/20 10:31:21;;;;;;;14.70;5.25;;;15.10;99.90;;;;;;5117895;27;20037;-65
2024/03/20 10:33:49;;;;;;;10.95;5.70;;;15.30;99.90;;;;;;5120814;27;20035;-65
2024/03/20 10:36:17;;;;;;;13.50;4.72;;;15.30;99.90;;;;;;5119414;27;20217;-65
2024/03/20 10:38:44;;;;;;;9.65;5.53;;;15.30;99.90;;;;;;5119279;27;20052;-65
2024/03/20 10:41:13;;;;;;;16.27;6.05;;;15.50;99.90;;;;;;5117156;27;20043;-65
2024/03/20 10:43:38;;;;;;;16.98;5.20;;;15.50;99.90;;;;;;5118632;27;20039;-65
2024/03/20 10:46:12;;;;;;;13.38;6.00;;;15.60;99.90;;;;;;5116129;27;20043;-65
2024/03/20 10:48:39;;;;;;;16.52;6.60;;;15.70;99.90;;;;;;5117047;27;20152;-66
2024/03/20 10:51:13;;;;;;;11.65;5.80;;;15.70;99.90;;;;;;5119381;27;20085;-65
2024/03/20 10:53:39;;;;;;;13.13;6.30;;;15.70;99.90;;;;;;5117529;27;20066;-65
2024/03/20 10:56:04;;;;;;;18.00;6.70;;;15.80;99.90;;;;;;5122066;27;20065;-65
2024/03/20 10:58:32;;;;;;;11.65;6.10;;;15.90;99.90;;;;;;5116712;27;20045;-65
2024/03/20 11:00:58;;;;;;;16.35;5.68;;;16.00;99.90;;;;;;5120433;27;20454;-65
2024/03/20 11:03:47;;;;;;;12.85;5.60;;;16.10;99.90;;;;;;5119113;27;20031;-65
2024/03/20 11:06:31;;;;;;;14.40;7.05;;;16.10;99.90;;;;;;5146626;27;20572;-66
2024/03/20 11:09:06;;;;;;;10.30;6.32;;;16.10;99.90;;;;;;5118919;27;20043;-65
2024/03/20 11:11:32;;;;;;;10.17;6.10;;;16.10;99.90;;;;;;5126755;27;20389;-65
2024/03/20 11:14:03;;;;;;;10.65;6.03;;;16.20;99.90;;;;;;5121745;27;20265;-65
2024/03/20 11:16:30;;;;;;;10.88;6.25;;;16.10;99.90;;;;;;5123071;27;20032;-65
2024/03/20 11:18:57;;;;;;;10.13;6.90;;;16.10;99.90;;;;;;5122783;27;20613;-65
2024/03/20 11:21:26;;;;;;;9.27;6.20;;;16.10;99.90;;;;;;5118715;27;20043;-65
2024/03/20 11:23:55;;;;;;;15.05;6.78;;;16.20;99.90;;;;;;5121124;27;20077;-65
2024/03/20 11:26:21;;;;;;;12.20;5.78;;;16.20;99.90;;;;;;5116623;27;20067;-65
2024/03/20 11:28:47;;;;;;;13.00;7.05;;;16.20;99.90;;;;;;5118143;27;20166;-66
2024/03/20 11:31:17;;;;;;;13.05;7.18;;;16.20;99.90;;;;;;5119731;27;20048;-65
2024/03/20 11:33:43;;;;;;;12.85;7.28;;;16.10;99.90;;;;;;5117292;27;20517;-65
2024/03/20 11:36:12;;;;;;;11.43;7.47;;;16.10;99.90;;;;;;5121718;27;20508;-65
2024/03/20 11:38:38;;;;;;;18.73;8.38;;;16.20;99.90;;;;;;5117517;27;20064;-65
2024/03/20 11:41:04;;;;;;;13.70;8.52;;;16.30;99.90;;;;;;5122251;27;20113;-65
2024/03/20 11:43:33;;;;;;;19.38;9.55;;;16.50;99.90;;;;;;5116756;28;20039;-65
2024/03/20 11:45:59;;;;;;;12.40;7.93;;;16.50;99.90;;;;;;5116192;28;20043;-65
2024/03/20 11:48:25;;;;;;;15.70;8.63;;;16.50;99.90;;;;;;5119967;28;20046;-65
2024/03/20 11:50:50;;;;;;;14.27;8.63;;;16.40;99.90;;;;;;5121618;28;20039;-65
2024/03/20 11:53:16;;;;;;;19.83;9.73;;;16.50;99.90;;;;;;5119962;28;20036;-65
2024/03/20 11:55:42;;;;;;;12.23;7.25;;;16.50;99.90;;;;;;5118998;28;20036;-65
2024/03/20 11:58:14;;;;;;;13.45;7.97;;;16.50;99.90;;;;;;5119775;27;20050;-65
2024/03/20 12:00:43;;;;;;;11.38;8.00;;;16.60;99.90;;;;;;5121147;27;20031;-65
2024/03/20 12:03:19;;;;;;;14.68;9.52;;;16.70;99.90;;;;;;5121728;27;20038;-65
2024/03/20 12:05:45;;;;;;;17.15;9.15;;;16.90;99.90;;;;;;5122190;27;20035;-65
2024/03/20 12:08:20;;;;;;;15.95;8.52;;;16.90;99.90;;;;;;5118403;27;20043;-65
2024/03/20 12:10:46;;;;;;;14.10;9.00;;;16.90;99.90;;;;;;5119897;27;20039;-65
2024/03/20 12:13:12;;;;;;;14.27;8.43;;;17.00;99.90;;;;;;5119808;27;20048;-65
2024/03/20 12:15:42;;;;;;;13.20;9.00;;;17.00;99.90;;;;;;5123195;27;20039;-65
2024/03/20 12:18:08;;;;;;;13.85;8.18;;;17.10;99.90;;;;;;5120435;27;20550;-65
2024/03/20 12:20:34;;;;;;;10.27;8.05;;;17.30;99.90;;;;;;5120725;27;20170;-65
2024/03/20 12:23:03;;;;;;;10.88;7.47;;;17.30;99.90;;;;;;5123092;27;20051;-66
2024/03/20 12:25:29;;;;;;;12.02;7.32;;;17.40;99.90;;;;;;5109737;27;20063;-66
2024/03/20 12:27:54;;;;;;;11.85;7.97;;;17.50;99.90;;;;;;5121477;27;20124;-66
2024/03/20 12:30:20;;;;;;;14.63;9.48;;;17.50;99.90;;;;;;5124454;27;20030;-66
2024/03/20 12:32:47;;;;;;;14.18;8.48;;;17.60;99.90;;;;;;5122017;27;20060;-66
2024/03/20 12:35:12;;;;;;;13.63;8.20;;;17.80;99.90;;;;;;5123989;27;20484;-66
2024/03/20 12:37:38;;;;;;;15.40;8.25;;;17.80;99.90;;;;;;5119807;27;20046;-66
2024/03/20 12:40:06;;;;;;;10.50;8.63;;;17.80;99.90;;;;;;5149298;27;20264;-66
2024/03/20 12:42:32;;;;;;;11.32;7.72;;;17.80;99.90;;;;;;5120360;27;20043;-65